This is the latest recevied weather packets stored in our database for station/object WI5ARD. If no packets are shown the sender has not sent any weather packets the latest 10 day(s).
| Time | Temp. | Humidity | Pressure | Rain* | Wind** | Luminosity | Snow |
|---|---|---|---|---|---|---|---|
| 1777925120 | 24.44° C | 47% | 1017.4 hPa | 0 mm | - | 896 W/m² | - |
| 1777923036 | 24.44° C | 47% | 1018 hPa | 0 mm | - | 963 W/m² | - |
| 1777921519 | 24.44° C | 50% | 1018 hPa | 0 mm | - | 991 W/m² | - |
| 1777917021 | 23.89° C | 51% | 1018.7 hPa | 0 mm | - | 1046 W/m² | - |
| 1777916422 | 23.89° C | 48% | 1018.7 hPa | 0 mm | - | 1044 W/m² | - |
| 1777916119 | 23.89° C | 52% | 1018.7 hPa | 0 mm | - | 1046 W/m² | - |
| 1777915519 | 23.89° C | 53% | 1018.5 hPa | 0 mm | - | 1034 W/m² | - |
| 1777915220 | 23.89° C | 50% | 1018.5 hPa | 0 mm | - | 1028 W/m² | - |
| 1777912821 | 23.33° C | 52% | 1019.2 hPa | 0 mm | - | 988 W/m² | - |
| 1777906519 | 22.22° C | 61% | 1019.7 hPa | 0 mm | - | 754 W/m² | - |
| 1777905620 | 21.11° C | 62% | 1020 hPa | 0 mm | - | 703 W/m² | - |
| 1777903518 | 20.56° C | 70% | 1019.8 hPa | 0 mm | - | 519 W/m² | - |
| 1777902018 | 18.89° C | 72% | 1019.9 hPa | 0 mm | - | 378 W/m² | - |
| 1777901719 | 18.89° C | 74% | 1019.9 hPa | 0 mm | - | 364 W/m² | - |
| 1777900819 | 17.78° C | 79% | 1019.9 hPa | 0 mm | - | 336 W/m² | - |
| 1777899637 | 15° C | 93% | 1019.8 hPa | 0 mm | - | 258 W/m² | - |
| 1777898418 | 13.89° C | 94% | 1019.7 hPa | 0 mm | - | 185 W/m² | - |
| 1777896935 | 11.67° C | 93% | 1019.5 hPa | 0 mm | - | 42 W/m² | - |
| 1777896319 | 11.11° C | 93% | 1019.5 hPa | 0 mm | - | 39 W/m² | - |
| 1777892721 | 11.11° C | 92% | 1019.1 hPa | 0 mm | - | 0 W/m² | - |
| 1777891820 | 11.11° C | 92% | 1018.9 hPa | 0 mm | - | 0 W/m² | - |
| 1777891535 | 11.11° C | 92% | 1019 hPa | 0 mm | - | 0 W/m² | - |
| 1777889737 | 11.67° C | 92% | 1019.1 hPa | 0 mm | - | 0 W/m² | - |
| 1777888519 | 11.67° C | 92% | 1019.1 hPa | 0 mm | - | 0 W/m² | - |
| 1777887035 | 11.67° C | 91% | 1019.1 hPa | 0 mm | - | 0 W/m² | - |
* Rain latest hour (hover to see other rain measurements)
** Current wind speed in m/s (hover to see current wind gust speed)